Time;durP1;ratioP1;P1;durP2;ratioP2;P2;SDS_P1;SDS_P2;PMS_P1;PMS_P2;Temp;Humidity;BMP_temperature;BMP_pressure;BME280_temperature;BME280_humidity;BME280_pressure;Samples;Min_cycle;Max_cycle;Signal;HPM_P1;HPM_P2
2021/10/24 00:01:38;;;;;;;1.13;1.02;;;;;;;11.68;67.06;102774.06;5015306;28;20038;-80
2021/10/24 00:04:05;;;;;;;0.38;0.38;;;;;;;11.70;67.17;102765.25;5025792;28;20033;-80
2021/10/24 00:06:31;;;;;;;0.10;0.10;;;;;;;11.76;67.25;102775.00;5025014;28;20032;-79
2021/10/24 00:08:58;;;;;;;0.13;0.13;;;;;;;11.77;67.23;102764.38;5016555;28;20392;-79
2021/10/24 00:11:24;;;;;;;0.65;0.65;;;;;;;11.80;66.85;102766.16;5015208;28;20382;-80
2021/10/24 00:13:51;;;;;;;1.00;1.00;;;;;;;11.82;66.93;102769.72;5013381;28;20050;-80
2021/10/24 00:16:17;;;;;;;0.10;0.10;;;;;;;11.86;66.71;102760.88;5016472;28;20447;-80
2021/10/24 00:18:44;;;;;;;0.28;0.28;;;;;;;11.88;66.85;102767.09;5019822;28;20107;-79
2021/10/24 00:21:10;;;;;;;1.00;1.00;;;;;;;11.89;67.19;102766.22;5027414;28;20048;-80
2021/10/24 00:23:37;;;;;;;0.10;0.10;;;;;;;11.93;66.95;102762.69;5016587;28;20025;-81
2021/10/24 00:26:04;;;;;;;0.95;0.95;;;;;;;11.95;66.92;102760.94;5025879;28;20030;-83
2021/10/24 00:28:30;;;;;;;0.10;0.10;;;;;;;11.94;66.91;102753.84;5016011;28;20029;-83
2021/10/24 00:30:57;;;;;;;0.20;0.20;;;;;;;11.96;66.91;102752.13;5025886;28;20029;-83
2021/10/24 00:33:23;;;;;;;0.10;0.10;;;;;;;11.99;67.13;102753.91;5029290;28;20026;-83
2021/10/24 00:35:50;;;;;;;0.52;0.52;;;;;;;12.02;66.80;102753.03;5029233;28;20161;-83
2021/10/24 00:38:16;;;;;;;0.10;0.10;;;;;;;12.04;67.21;102751.28;5025152;28;20033;-83
2021/10/24 00:40:44;;;;;;;0.10;0.10;;;;;;;12.05;66.95;102756.59;5018468;28;20023;-81
2021/10/24 00:43:10;;;;;;;0.10;0.10;;;;;;;12.05;66.52;102743.31;5026121;28;20033;-82
2021/10/24 00:45:37;;;;;;;0.40;0.40;;;;;;;12.04;66.36;102745.97;5018808;28;20432;-82
2021/10/24 00:48:04;;;;;;;0.10;0.10;;;;;;;12.04;66.63;102748.63;5022407;28;20537;-81
2021/10/24 00:50:32;;;;;;;0.20;0.20;;;;;;;12.01;66.52;102751.25;5026510;28;20029;-82
2021/10/24 00:52:59;;;;;;;0.15;0.15;;;;;;;11.98;66.11;102749.47;5021784;28;20022;-82
2021/10/24 00:55:26;;;;;;;1.05;1.05;;;;;;;11.95;66.19;102745.00;5021515;28;20034;-83
2021/10/24 00:57:53;;;;;;;0.20;0.20;;;;;;;11.90;66.06;102745.84;5025713;28;20030;-82
2021/10/24 01:00:20;;;;;;;0.70;0.70;;;;;;;11.87;65.94;102741.41;5024748;28;20018;-82
2021/10/24 01:02:46;;;;;;;0.10;0.10;;;;;;;11.75;66.09;102746.66;5026219;28;20366;-82
2021/10/24 01:05:15;;;;;;;0.55;0.55;;;;;;;11.67;66.03;102745.75;5020142;28;20026;-82
2021/10/24 01:07:45;;;;;;;0.10;0.10;;;;;;;11.58;65.74;102739.47;5028276;28;20038;-82
2021/10/24 01:10:15;;;;;;;0.70;0.70;;;;;;;11.48;65.41;102745.63;5031595;28;20033;-82
2021/10/24 01:12:44;;;;;;;0.32;0.32;;;;;;;11.38;65.50;102733.16;5016693;28;20038;-82
2021/10/24 01:15:11;;;;;;;0.65;0.65;;;;;;;11.28;65.45;102730.44;5017409;28;20037;-82
2021/10/24 01:17:37;;;;;;;0.10;0.10;;;;;;;11.16;65.56;102748.91;5022366;28;20102;-82
2021/10/24 01:20:05;;;;;;;0.30;0.30;;;;;;;11.08;65.33;102740.91;5028974;28;20087;-83
2021/10/24 01:22:36;;;;;;;0.17;0.17;;;;;;;10.99;65.33;102743.44;5026581;28;20485;-82
2021/10/24 01:25:05;;;;;;;0.82;0.82;;;;;;;10.87;65.32;102738.06;5028379;28;20030;-83
2021/10/24 01:27:33;;;;;;;0.10;0.10;;;;;;;10.79;65.29;102724.72;5024601;28;20022;-82
2021/10/24 01:30:01;;;;;;;0.10;0.10;;;;;;;10.70;65.48;102724.63;5025291;28;20079;-82
2021/10/24 01:32:28;;;;;;;0.20;0.20;;;;;;;10.63;65.58;102723.66;5028638;28;20408;-82
2021/10/24 01:34:58;;;;;;;0.10;0.10;;;;;;;10.54;65.51;102724.47;5015563;28;20021;-82
2021/10/24 01:37:31;;;;;;;0.20;0.20;;;;;;;10.49;65.38;102732.41;5016904;28;20041;-83
2021/10/24 01:39:59;;;;;;;0.63;0.63;;;;;;;10.38;65.59;102722.53;5021976;28;20435;-82
2021/10/24 01:42:25;;;;;;;0.10;0.10;;;;;;;10.33;65.81;102720.69;5025916;28;20273;-82
2021/10/24 01:44:52;;;;;;;0.20;0.20;;;;;;;10.24;66.11;102720.56;5028505;28;20045;-81
2021/10/24 01:47:18;;;;;;;0.20;0.20;;;;;;;10.17;66.15;102721.41;5025278;28;20030;-82
2021/10/24 01:49:45;;;;;;;0.10;0.10;;;;;;;10.15;65.88;102723.13;5019062;28;20076;-82
2021/10/24 01:52:11;;;;;;;0.10;0.10;;;;;;;10.09;66.16;102720.41;5026658;28;20022;-82
2021/10/24 01:54:38;;;;;;;0.10;0.10;;;;;;;10.00;66.09;102719.41;5030912;28;20742;-81
2021/10/24 01:57:10;;;;;;;0.20;0.20;;;;;;;9.98;66.33;102718.53;5026669;28;20395;-81
2021/10/24 01:59:37;;;;;;;0.10;0.10;;;;;;;9.91;66.67;102711.38;5030030;28;20477;-83
2021/10/24 02:02:03;;;;;;;0.10;0.10;;;;;;;9.87;66.22;102710.44;5026291;28;20037;-87
2021/10/24 02:04:30;;;;;;;0.20;0.20;;;;;;;9.84;66.28;102706.84;5026808;28;20029;-82
2021/10/24 02:06:56;;;;;;;0.10;0.10;;;;;;;9.78;66.66;102705.03;5023680;28;20373;-82
2021/10/24 02:09:23;;;;;;;0.50;0.50;;;;;;;9.74;66.17;102702.31;5022847;28;20423;-83
2021/10/24 02:11:49;;;;;;;0.52;0.52;;;;;;;9.65;66.48;102697.78;5017802;28;20028;-82
2021/10/24 02:14:17;;;;;;;0.30;0.30;;;;;;;9.63;66.71;102694.22;5027817;28;20405;-83
2021/10/24 02:16:43;;;;;;;0.10;0.10;;;;;;;9.61;66.42;102690.66;5018366;28;20040;-82
2021/10/24 02:19:10;;;;;;;0.20;0.20;;;;;;;9.58;66.72;102688.84;5021911;28;20033;-82
2021/10/24 02:21:37;;;;;;;0.43;0.43;;;;;;;9.54;66.76;102689.69;5022523;28;20041;-82
2021/10/24 02:24:07;;;;;;;0.10;0.10;;;;;;;9.53;66.70;102683.53;5033051;28;20026;-81
2021/10/24 02:26:34;;;;;;;0.15;0.15;;;;;;;9.46;66.85;102686.03;5033366;28;20029;-81
2021/10/24 02:29:00;;;;;;;0.10;0.10;;;;;;;9.44;66.64;102678.09;5032242;28;20037;-81
2021/10/24 02:31:28;;;;;;;0.63;0.63;;;;;;;9.37;66.52;102677.13;5032862;28;20033;-82
2021/10/24 02:33:55;;;;;;;0.57;0.57;;;;;;;9.30;66.34;102675.25;5031873;28;20498;-82
2021/10/24 02:36:21;;;;;;;0.10;0.10;;;;;;;9.29;66.92;102683.16;5031600;28;20072;-82
2021/10/24 02:38:48;;;;;;;0.45;0.45;;;;;;;9.27;66.93;102669.91;5032670;28;20091;-81
2021/10/24 02:41:14;;;;;;;0.28;0.28;;;;;;;9.25;66.73;102671.66;5031407;28;20045;-82
2021/10/24 02:43:41;;;;;;;0.32;0.32;;;;;;;9.22;66.72;102671.59;5033391;28;20060;-81
2021/10/24 02:46:07;;;;;;;0.13;0.13;;;;;;;9.19;67.12;102667.13;5030423;28;20033;-81
2021/10/24 02:48:34;;;;;;;0.20;0.20;;;;;;;9.16;66.54;102667.09;5022762;28;20034;-81
2021/10/24 02:51:00;;;;;;;0.10;0.10;;;;;;;9.15;66.51;102669.75;5028398;28;20033;-82
2021/10/24 02:53:27;;;;;;;0.10;0.10;;;;;;;9.14;66.85;102662.66;5026904;28;20029;-81
2021/10/24 02:55:53;;;;;;;0.10;0.10;;;;;;;9.11;66.51;102663.50;5031983;28;20029;-84
2021/10/24 02:58:19;;;;;;;0.10;0.10;;;;;;;9.06;67.06;102654.63;5027327;28;20535;-82
2021/10/24 03:00:46;;;;;;;0.20;0.20;;;;;;;9.04;66.68;102657.22;5026994;28;20108;-82
2021/10/24 03:03:12;;;;;;;0.10;0.10;;;;;;;8.99;66.63;102658.03;5028915;28;20037;-82
2021/10/24 03:05:39;;;;;;;0.10;0.10;;;;;;;8.97;66.96;102663.31;5033254;28;20075;-84
2021/10/24 03:08:05;;;;;;;0.20;0.20;;;;;;;8.94;66.31;102659.72;5030660;28;20389;-82
2021/10/24 03:10:34;;;;;;;0.10;0.10;;;;;;;8.94;66.61;102660.59;5032849;28;20083;-81
2021/10/24 03:13:01;;;;;;;0.10;0.10;;;;;;;8.91;67.11;102649.97;5031018;28;20033;-82
2021/10/24 03:15:27;;;;;;;1.52;1.42;;;;;;;8.90;66.69;102653.47;5026785;28;20037;-82
2021/10/24 03:17:53;;;;;;;0.20;0.20;;;;;;;8.89;66.49;102654.34;5032432;28;20029;-82
2021/10/24 03:20:20;;;;;;;1.30;1.30;;;;;;;8.86;67.13;102647.25;5028830;28;20428;-82
2021/10/24 03:22:46;;;;;;;0.75;0.75;;;;;;;8.81;66.62;102648.03;5022014;28;20473;-81
2021/10/24 03:25:13;;;;;;;0.17;0.17;;;;;;;8.80;67.18;102648.88;5026304;28;20034;-81
2021/10/24 03:27:39;;;;;;;0.10;0.10;;;;;;;8.80;66.93;102641.88;5023114;28;20088;-82
2021/10/24 03:30:06;;;;;;;1.00;1.00;;;;;;;8.79;66.49;102649.78;5029416;28;20048;-81
2021/10/24 03:32:32;;;;;;;0.22;0.22;;;;;;;8.74;66.74;102653.22;5025738;28;20393;-82
2021/10/24 03:35:00;;;;;;;0.55;0.55;;;;;;;8.70;66.64;102661.97;5029901;28;20041;-82
2021/10/24 03:37:27;;;;;;;0.15;0.15;;;;;;;8.71;66.79;102653.19;5028512;28;20036;-82
2021/10/24 03:39:53;;;;;;;0.10;0.10;;;;;;;8.68;66.88;102647.81;5027042;28;20053;-82
2021/10/24 03:42:20;;;;;;;0.20;0.20;;;;;;;8.68;66.71;102650.47;5026667;28;20564;-81
2021/10/24 03:44:46;;;;;;;0.10;0.10;;;;;;;8.68;66.73;102642.53;5032199;28;20075;-81
2021/10/24 03:47:13;;;;;;;0.10;0.10;;;;;;;8.68;67.21;102654.88;5031620;28;20469;-81
2021/10/24 03:49:40;;;;;;;0.75;0.65;;;;;;;8.66;67.19;102643.38;5025373;28;20045;-81
2021/10/24 03:52:06;;;;;;;0.10;0.10;;;;;;;8.61;67.17;102638.03;5027565;28;20045;-82
2021/10/24 03:54:33;;;;;;;0.10;0.10;;;;;;;8.62;67.20;102638.91;5026639;28;20025;-82
2021/10/24 03:56:59;;;;;;;0.30;0.30;;;;;;;8.59;66.73;102634.47;5028707;28;20037;-81
2021/10/24 03:59:26;;;;;;;1.05;1.00;;;;;;;8.55;67.48;102641.44;5027727;28;20029;-82
2021/10/24 04:01:52;;;;;;;0.55;0.55;;;;;;;8.55;67.35;102635.28;5030304;28;20486;-82
2021/10/24 04:04:19;;;;;;;0.38;0.38;;;;;;;8.54;66.61;102633.50;5028555;28;20025;-81
2021/10/24 04:06:45;;;;;;;0.15;0.15;;;;;;;8.53;66.83;102637.00;5031041;28;20504;-82
2021/10/24 04:09:12;;;;;;;0.10;0.10;;;;;;;8.49;67.31;102632.53;5028975;28;20021;-81
2021/10/24 04:11:38;;;;;;;0.10;0.10;;;;;;;8.50;67.21;102637.84;5026458;28;20034;-82
2021/10/24 04:14:05;;;;;;;0.17;0.17;;;;;;;8.49;66.79;102630.78;5029314;28;20018;-81
2021/10/24 04:16:32;;;;;;;0.20;0.20;;;;;;;8.43;67.04;102636.78;5030638;28;20044;-81
2021/10/24 04:18:58;;;;;;;0.20;0.20;;;;;;;8.45;66.63;102628.00;5028356;28;20034;-81
2021/10/24 04:21:25;;;;;;;0.13;0.13;;;;;;;8.37;67.42;102635.81;5028203;28;20017;-80
2021/10/24 04:23:51;;;;;;;0.10;0.10;;;;;;;8.39;67.16;102629.69;5022601;28;20477;-81
2021/10/24 04:26:17;;;;;;;0.65;0.65;;;;;;;8.36;67.77;102632.28;5015951;28;20045;-82
2021/10/24 04:28:44;;;;;;;0.10;0.10;;;;;;;8.37;67.42;102636.72;5022318;28;20025;-82
2021/10/24 04:31:11;;;;;;;0.10;0.10;;;;;;;8.37;67.54;102628.78;5029151;28;20037;-82
2021/10/24 04:33:37;;;;;;;0.40;0.40;;;;;;;8.36;66.90;102624.38;5028303;28;20033;-82
2021/10/24 04:36:03;;;;;;;0.80;0.60;;;;;;;8.34;66.48;102627.84;5028859;28;20086;-82
2021/10/24 04:38:31;;;;;;;0.10;0.10;;;;;;;8.31;67.28;102633.97;5029463;28;20116;-82
2021/10/24 04:40:58;;;;;;;0.17;0.17;;;;;;;8.28;67.17;102627.72;5030639;28;20115;-81
2021/10/24 04:43:25;;;;;;;0.25;0.25;;;;;;;8.26;67.27;102627.69;5026921;28;20504;-81
2021/10/24 04:45:51;;;;;;;0.38;0.38;;;;;;;8.22;67.78;102620.56;5029332;28;20104;-81
2021/10/24 04:48:18;;;;;;;0.20;0.20;;;;;;;8.21;67.83;102621.44;5028940;28;20157;-81
2021/10/24 04:50:44;;;;;;;0.10;0.10;;;;;;;8.18;67.99;102619.63;5028218;28;20490;-81
2021/10/24 04:53:10;;;;;;;0.52;0.52;;;;;;;8.18;67.84;102616.09;5029018;28;20029;-81
2021/10/24 04:55:37;;;;;;;0.68;0.68;;;;;;;8.16;67.43;102616.09;5027717;28;20032;-82
2021/10/24 04:58:03;;;;;;;2.22;0.85;;;;;;;8.15;67.73;102616.03;5031517;28;20041;-81
2021/10/24 05:00:31;;;;;;;0.10;0.10;;;;;;;8.14;67.48;102617.78;5024576;28;20676;-81
2021/10/24 05:02:59;;;;;;;1.00;1.00;;;;;;;8.15;67.50;102611.66;5031340;28;20029;-81
2021/10/24 05:05:26;;;;;;;0.38;0.38;;;;;;;8.08;68.23;102602.72;5027631;28;20120;-81
2021/10/24 05:07:53;;;;;;;1.55;1.30;;;;;;;8.14;67.91;102606.31;5028799;28;20025;-81
2021/10/24 05:10:20;;;;;;;0.10;0.10;;;;;;;8.12;67.15;102601.03;5027446;28;20033;-81
2021/10/24 05:12:46;;;;;;;0.10;0.10;;;;;;;8.09;67.67;102600.97;5028133;28;20047;-81
2021/10/24 05:15:12;;;;;;;2.90;2.50;;;;;;;8.10;67.87;102603.66;5030635;28;20052;-82
2021/10/24 05:17:38;;;;;;;0.35;0.35;;;;;;;8.09;67.17;102593.94;5029211;28;20026;-82
2021/10/24 05:20:06;;;;;;;0.10;0.10;;;;;;;8.04;67.89;102595.59;5028827;28;20026;-81
2021/10/24 05:22:33;;;;;;;0.10;0.10;;;;;;;8.03;67.75;102598.22;5026755;28;20041;-81
2021/10/24 05:24:59;;;;;;;0.47;0.47;;;;;;;7.99;67.89;102594.63;5031005;28;20429;-81
2021/10/24 05:27:25;;;;;;;0.32;0.32;;;;;;;8.02;67.24;102586.75;5032399;28;20370;-81
2021/10/24 05:29:52;;;;;;;0.25;0.25;;;;;;;7.96;67.96;102589.28;5033631;28;20092;-81
2021/10/24 05:32:18;;;;;;;0.57;0.57;;;;;;;7.92;67.80;102576.91;5030776;28;20088;-81
2021/10/24 05:34:44;;;;;;;0.20;0.20;;;;;;;7.94;68.07;102583.09;5032219;28;20036;-81
2021/10/24 05:37:11;;;;;;;0.10;0.10;;;;;;;7.95;67.76;102569.06;5032040;28;20048;-82
2021/10/24 05:39:37;;;;;;;0.47;0.47;;;;;;;7.93;67.87;102568.13;5032657;28;20025;-81
2021/10/24 05:42:04;;;;;;;0.30;0.30;;;;;;;7.92;67.37;102559.34;5033074;28;20041;-81
2021/10/24 05:44:30;;;;;;;0.10;0.10;;;;;;;7.89;67.55;102564.53;5033689;28;20436;-81
2021/10/24 05:46:57;;;;;;;0.20;0.20;;;;;;;7.89;68.23;102556.63;5031887;28;20029;-82
2021/10/24 05:49:23;;;;;;;1.17;1.17;;;;;;;7.90;67.95;102560.13;5029970;28;20100;-81
2021/10/24 05:51:50;;;;;;;0.20;0.20;;;;;;;7.88;67.93;102561.88;5025884;28;20446;-81
2021/10/24 05:54:17;;;;;;;0.65;0.65;;;;;;;7.86;68.20;102542.47;5030473;28;20033;-81
2021/10/24 05:56:43;;;;;;;0.20;0.20;;;;;;;7.85;68.39;102535.41;5030452;28;20048;-81
2021/10/24 05:59:09;;;;;;;1.77;1.65;;;;;;;7.84;68.42;102536.28;5034272;28;20037;-82
2021/10/24 06:01:35;;;;;;;0.40;0.40;;;;;;;7.82;67.84;102538.00;5031928;28;20132;-81
2021/10/24 06:04:02;;;;;;;0.17;0.17;;;;;;;7.84;68.38;102533.63;5028540;28;20102;-81
2021/10/24 06:06:28;;;;;;;0.10;0.10;;;;;;;7.83;68.07;102532.75;5034370;28;20476;-82
2021/10/24 06:08:54;;;;;;;0.20;0.20;;;;;;;7.88;67.75;102530.22;5028094;28;20056;-81
2021/10/24 06:11:33;;;;;;;0.25;0.25;;;;;;;7.87;67.61;102523.16;5033385;28;20072;-81
2021/10/24 06:14:00;;;;;;;0.10;0.10;;;;;;;7.90;67.61;102524.09;5028578;28;20041;-81
2021/10/24 06:16:28;;;;;;;0.20;0.20;;;;;;;7.86;68.02;102531.91;5034121;28;20799;-82
2021/10/24 06:18:54;;;;;;;0.10;0.10;;;;;;;7.85;68.23;102519.56;5030080;28;20070;-81
2021/10/24 06:21:20;;;;;;;0.60;0.60;;;;;;;7.82;68.58;102522.19;5027295;28;20504;-82
2021/10/24 06:23:48;;;;;;;0.10;0.10;;;;;;;7.87;68.03;102525.78;5031632;28;20033;-82
2021/10/24 06:26:14;;;;;;;0.10;0.10;;;;;;;7.89;67.55;102524.94;5026296;28;20034;-81
2021/10/24 06:28:41;;;;;;;0.10;0.10;;;;;;;7.84;67.94;102523.06;5031746;28;20388;-82
2021/10/24 06:31:07;;;;;;;0.10;0.10;;;;;;;7.86;67.85;102524.91;5027243;28;20029;-82
2021/10/24 06:33:33;;;;;;;0.30;0.30;;;;;;;7.83;68.26;102527.47;5018717;28;20037;-83
2021/10/24 06:36:00;;;;;;;0.50;0.50;;;;;;;7.91;68.01;102524.97;5016451;28;20436;-81
2021/10/24 06:38:26;;;;;;;0.10;0.10;;;;;;;7.88;67.51;102511.72;5022157;28;20037;-81
2021/10/24 06:40:52;;;;;;;0.20;0.20;;;;;;;7.93;68.16;102513.56;5020024;28;20090;-81
2021/10/24 06:43:19;;;;;;;0.10;0.10;;;;;;;7.93;67.92;102515.34;5018285;28;20041;-80
2021/10/24 06:45:45;;;;;;;0.10;0.10;;;;;;;7.94;67.67;102519.75;5024588;28;20383;-82
2021/10/24 06:48:12;;;;;;;0.10;0.10;;;;;;;7.95;68.02;102516.28;5027497;28;20056;-81
2021/10/24 06:50:38;;;;;;;0.50;0.50;;;;;;;7.97;67.96;102519.81;5031753;28;20472;-81
2021/10/24 06:53:05;;;;;;;0.10;0.10;;;;;;;7.98;67.57;102516.31;5027492;28;20492;-80
2021/10/24 06:55:32;;;;;;;0.32;0.32;;;;;;;8.00;67.70;102508.41;5032064;28;20033;-83
2021/10/24 06:57:58;;;;;;;0.43;0.43;;;;;;;7.98;67.61;102516.31;5029708;28;20456;-81
2021/10/24 07:00:26;;;;;;;0.17;0.17;;;;;;;8.01;67.88;102518.09;5031820;28;20500;-81
2021/10/24 07:02:53;;;;;;;0.35;0.35;;;;;;;8.04;68.05;102519.06;5027235;28;20095;-81
2021/10/24 07:05:21;;;;;;;0.25;0.25;;;;;;;8.07;67.55;102510.28;5028105;28;20437;-82
2021/10/24 07:07:47;;;;;;;0.10;0.10;;;;;;;8.05;68.06;102512.00;5032415;28;20026;-83
2021/10/24 07:10:16;;;;;;;0.10;0.10;;;;;;;8.09;68.02;102520.00;5031018;28;20029;-82
2021/10/24 07:12:42;;;;;;;0.10;0.10;;;;;;;8.09;67.91;102522.66;5032514;28;20045;-84
2021/10/24 07:15:11;;;;;;;0.40;0.40;;;;;;;8.17;67.58;102517.50;5029403;28;20026;-82
2021/10/24 07:17:38;;;;;;;0.73;0.73;;;;;;;8.17;67.64;102524.56;5028134;28;20029;-83
2021/10/24 07:20:07;;;;;;;0.10;0.10;;;;;;;8.22;67.66;102515.84;5028858;28;20022;-81
2021/10/24 07:22:35;;;;;;;0.10;0.10;;;;;;;8.20;68.08;102516.66;5022692;28;20060;-82
2021/10/24 07:25:03;;;;;;;0.75;0.75;;;;;;;8.27;67.90;102518.56;5032894;28;20127;-82
2021/10/24 07:27:30;;;;;;;0.08;0.08;;;;;;;8.28;67.97;102520.34;5025857;28;20034;-82
2021/10/24 07:29:57;;;;;;;0.35;0.35;;;;;;;8.33;68.32;102515.13;5027871;28;20034;-83
2021/10/24 07:32:24;;;;;;;0.20;0.20;;;;;;;8.37;67.66;102515.22;5024408;28;20461;-82
2021/10/24 07:34:50;;;;;;;0.10;0.10;;;;;;;8.41;67.83;102511.75;5021008;28;20115;-84
2021/10/24 07:37:17;;;;;;;0.10;0.10;;;;;;;8.42;67.88;102516.19;5019101;28;20040;-82
2021/10/24 07:39:44;;;;;;;0.10;0.10;;;;;;;8.47;68.55;102515.38;5028216;28;20468;-80
2021/10/24 07:42:10;;;;;;;0.10;0.10;;;;;;;8.53;67.72;102510.19;5021615;28;20030;-84
2021/10/24 07:44:37;;;;;;;0.75;0.75;;;;;;;8.62;68.05;102505.03;5031011;28;20061;-82
2021/10/24 07:47:04;;;;;;;0.38;0.38;;;;;;;8.65;68.23;102510.38;5028422;28;20045;-84
2021/10/24 07:49:30;;;;;;;0.10;0.10;;;;;;;8.63;68.15;102516.50;5027512;28;20104;-85
2021/10/24 07:51:58;;;;;;;0.10;0.10;;;;;;;8.69;68.16;102512.19;5030111;28;20504;-82
2021/10/24 07:54:24;;;;;;;0.13;0.13;;;;;;;8.73;68.32;102511.41;5028969;28;20037;-82
2021/10/24 07:56:52;;;;;;;0.10;0.10;;;;;;;8.73;68.27;102500.81;5030070;28;20660;-82
2021/10/24 07:59:20;;;;;;;0.10;0.10;;;;;;;8.77;68.48;102498.22;5028374;28;20056;-88
2021/10/24 08:01:46;;;;;;;0.28;0.28;;;;;;;8.82;68.50;102501.81;5025322;28;20695;-84
2021/10/24 08:04:14;;;;;;;0.10;0.10;;;;;;;8.91;68.26;102496.66;5029587;28;20028;-82
2021/10/24 08:06:40;;;;;;;0.13;0.13;;;;;;;8.97;67.69;102501.13;5031696;28;20140;-87
2021/10/24 08:09:10;;;;;;;0.10;0.10;;;;;;;9.00;68.30;102494.13;5029500;28;20040;-82
2021/10/24 08:11:36;;;;;;;0.20;0.20;;;;;;;9.07;68.26;102488.06;5030617;28;20396;-84
2021/10/24 08:14:06;;;;;;;0.10;0.10;;;;;;;9.16;67.93;102491.66;5030057;28;20021;-85
2021/10/24 08:16:33;;;;;;;0.10;0.10;;;;;;;9.23;67.99;102489.13;5019826;28;20449;-81
2021/10/24 08:19:00;;;;;;;0.68;0.68;;;;;;;9.23;67.64;102488.22;5027930;28;20029;-87
2021/10/24 08:21:26;;;;;;;0.10;0.10;;;;;;;9.27;67.56;102486.50;5025424;28;20094;-85
2021/10/24 08:23:53;;;;;;;0.20;0.20;;;;;;;9.29;67.93;102487.44;5022182;28;20024;-83
2021/10/24 08:26:19;;;;;;;0.10;0.10;;;;;;;9.42;67.66;102483.16;5017136;28;20068;-82
2021/10/24 08:28:47;;;;;;;0.10;0.10;;;;;;;9.43;67.03;102483.16;5021204;28;20427;-81
2021/10/24 08:31:16;;;;;;;0.10;0.10;;;;;;;9.50;67.43;102481.50;5030742;28;20037;-85
2021/10/24 08:33:44;;;;;;;0.10;0.10;;;;;;;9.64;67.33;102484.28;5030579;28;20116;-83
2021/10/24 08:36:10;;;;;;;0.20;0.20;;;;;;;9.70;66.94;102474.63;5022291;28;20038;-85
2021/10/24 08:38:37;;;;;;;0.00;0.00;;;;;;;9.70;66.80;102466.69;5028872;28;20041;-90
2021/10/24 08:41:03;;;;;;;0.10;0.10;;;;;;;9.81;66.60;102465.94;5031808;28;20442;-82
2021/10/24 08:43:32;;;;;;;0.08;0.08;;;;;;;9.89;66.72;102464.22;5027950;28;20038;-82
2021/10/24 08:45:59;;;;;;;0.10;0.10;;;;;;;10.00;66.60;102462.53;5026979;28;20044;-82
2021/10/24 08:48:25;;;;;;;0.43;0.43;;;;;;;10.10;66.88;102457.34;5029881;28;20029;-88
2021/10/24 08:50:52;;;;;;;0.10;0.10;;;;;;;10.12;66.58;102455.56;5026102;28;20107;-82
2021/10/24 08:53:23;;;;;;;0.15;0.15;;;;;;;10.22;66.40;102457.44;5028675;28;20080;-82
2021/10/24 08:55:55;;;;;;;0.20;0.20;;;;;;;10.35;66.23;102464.59;5025017;28;20032;-82
2021/10/24 08:58:22;;;;;;;0.30;0.30;;;;;;;10.37;65.86;102456.69;5027752;28;20030;-83
2021/10/24 09:00:50;;;;;;;0.28;0.22;;;;;;;10.49;65.94;102450.56;5032505;28;20029;-87
2021/10/24 09:03:20;;;;;;;0.10;0.10;;;;;;;10.58;65.36;102452.38;5034223;28;20026;-85
2021/10/24 09:05:52;;;;;;;0.10;0.10;;;;;;;10.67;64.89;102440.06;5027226;28;21496;-90
2021/10/24 09:08:21;;;;;;;1.20;1.10;;;;;;;10.77;64.98;102442.78;5030371;28;20132;-85
2021/10/24 09:13:36;;;;;;;0.63;0.63;;;;;;;10.88;63.04;102434.84;5081374;27;20398;-88
2021/10/24 09:18:48;;;;;;;0.10;0.10;;;;;;;11.14;64.32;102432.31;5070353;27;20476;-83
2021/10/24 09:26:52;;;;;;;0.10;0.10;;;;;;;11.41;63.34;102427.97;5111962;27;20404;-87
2021/10/24 09:29:18;;;;;;;0.10;0.10;;;;;;;11.48;62.58;102427.09;5112754;28;20059;-84
2021/10/24 09:31:51;;;;;;;0.10;0.10;;;;;;;11.55;63.68;102423.56;5108118;28;20036;-84
2021/10/24 09:34:21;;;;;;;0.30;0.28;;;;;;;11.60;62.09;102413.84;5086818;28;20391;-87
2021/10/24 09:36:52;;;;;;;0.32;0.32;;;;;;;11.79;62.94;102406.75;5086700;28;20553;-85
2021/10/24 09:39:20;;;;;;;0.10;0.10;;;;;;;11.88;62.73;102413.84;5091426;28;20052;-86
2021/10/24 09:41:46;;;;;;;0.20;0.20;;;;;;;11.95;61.96;102410.31;5092060;28;20032;-89
2021/10/24 09:44:15;;;;;;;2.10;0.85;;;;;;;12.10;62.78;102409.44;5084502;28;20078;-83
2021/10/24 09:46:58;;;;;;;0.10;0.10;;;;;;;12.29;62.57;102404.09;5086042;28;20116;-87
2021/10/24 09:49:25;;;;;;;0.47;0.47;;;;;;;12.36;62.62;102399.63;5088908;28;20463;-88
2021/10/24 09:51:52;;;;;;;0.45;0.45;;;;;;;12.44;62.47;102397.84;5087992;28;20028;-86
2021/10/24 09:54:24;;;;;;;0.20;0.20;;;;;;;12.52;60.72;102400.47;5089470;28;20424;-83
2021/10/24 09:56:51;;;;;;;0.17;0.17;;;;;;;12.64;61.04;102400.44;5086123;28;20483;-87
2021/10/24 09:59:19;;;;;;;0.38;0.38;;;;;;;12.68;59.31;102393.34;5079320;28;20032;-86
2021/10/24 10:01:48;;;;;;;0.20;0.20;;;;;;;12.75;58.35;102397.75;5081568;28;20032;-85
2021/10/24 10:04:14;;;;;;;0.10;0.10;;;;;;;12.86;60.69;102385.28;5076250;28;20029;-88
2021/10/24 10:06:44;;;;;;;0.10;0.10;;;;;;;12.93;59.68;102392.34;5082347;28;20032;-87
2021/10/24 10:09:12;;;;;;;1.17;1.13;;;;;;;13.03;59.43;102377.19;5079969;28;20361;-84
2021/10/24 10:11:50;;;;;;;0.90;0.90;;;;;;;13.08;59.01;102369.19;5077862;28;20540;-87
2021/10/24 10:14:22;;;;;;;0.98;0.98;;;;;;;13.05;56.41;102379.88;5080720;28;20028;-91
2021/10/24 10:16:57;;;;;;;0.38;0.38;;;;;;;13.19;58.33;102372.66;5078583;28;20025;-85
2021/10/24 10:19:32;;;;;;;0.20;0.20;;;;;;;13.21;56.03;102380.66;5082585;28;20047;-91
2021/10/24 10:25:09;;;;;;;0.10;0.10;;;;;;;13.47;59.36;102377.84;5071861;27;20850;-88
2021/10/24 10:33:34;;;;;;;0.17;0.17;;;;;;;13.70;55.65;102380.31;5106165;27;20356;-87
2021/10/24 10:36:04;;;;;;;0.10;0.10;;;;;;;13.67;57.90;102385.69;5081231;28;20115;-86
2021/10/24 10:41:34;;;;;;;0.38;0.38;;;;;;;13.87;55.60;102385.50;5072721;27;20431;-82
2021/10/24 10:44:07;;;;;;;;;;;;;;;13.94;53.64;102382.78;5044200;28;20044;-86
2021/10/24 10:46:34;;;;;;;0.10;0.10;;;;;;;13.95;55.33;102384.56;5045220;28;19956;-86
2021/10/24 10:52:37;;;;;;;0.13;0.13;;;;;;;14.26;55.79;102384.25;5069004;28;20422;-89
2021/10/24 10:55:04;;;;;;;0.38;0.38;;;;;;;14.29;56.12;102374.41;5052302;28;20025;-83
2021/10/24 10:57:30;;;;;;;0.10;0.10;;;;;;;14.34;53.97;102371.69;5046000;28;20021;-87
2021/10/24 10:59:58;;;;;;;0.08;0.08;;;;;;;14.42;55.79;102369.84;5040840;28;20065;-87
2021/10/24 11:02:28;;;;;;;0.10;0.10;;;;;;;14.43;53.78;102366.28;5053743;28;20025;-83
2021/10/24 11:04:58;;;;;;;0.22;0.22;;;;;;;14.54;54.70;102367.03;5045183;28;20040;-89
2021/10/24 11:07:46;;;;;;;0.10;0.10;;;;;;;14.67;54.92;102353.56;5045413;28;21246;-83
2021/10/24 11:10:47;;;;;;;0.10;0.10;;;;;;;14.78;55.15;102362.31;5041004;28;20528;-87
2021/10/24 11:22:16;;;;;;;1.10;0.55;;;;;;;15.15;54.34;102361.81;5077102;27;20421;-85
2021/10/24 11:24:53;;;;;;;2.55;0.73;;;;;;;15.13;52.38;102358.25;5041280;28;20116;-89
2021/10/24 11:30:15;;;;;;;1.55;1.45;;;;;;;15.20;51.43;102359.94;5059165;28;20455;-95
2021/10/24 11:32:43;;;;;;;0.20;0.20;;;;;;;15.31;54.53;102349.06;5034115;28;20116;-86
2021/10/24 11:40:40;;;;;;;0.47;0.47;;;;;;;15.51;52.46;102343.44;5080450;28;20487;-86
2021/10/24 11:48:34;;;;;;;0.30;0.30;;;;;;;15.66;52.94;102334.28;5105764;27;20416;-87
2021/10/24 11:51:04;;;;;;;0.10;0.10;;;;;;;15.73;51.71;102332.38;5108195;28;20162;-82
2021/10/24 11:59:05;;;;;;;0.10;0.10;;;;;;;16.03;51.38;102316.69;5079199;27;20409;-81
2021/10/24 12:01:34;;;;;;;0.40;0.40;;;;;;;16.15;52.79;102312.94;5059639;28;20082;-81
2021/10/24 12:04:11;;;;;;;0.80;0.63;;;;;;;16.11;49.94;102314.78;5044806;28;20049;-81
2021/10/24 12:07:03;;;;;;;1.00;0.93;;;;;;;16.30;52.14;102311.72;5046412;28;20404;-82
2021/10/24 12:12:19;;;;;;;0.15;0.15;;;;;;;16.40;51.28;102299.91;5076245;28;20877;-81
2021/10/24 12:17:34;;;;;;;0.10;0.10;;;;;;;16.56;50.29;102284.41;5050536;28;20400;-85
2021/10/24 12:20:21;;;;;;;0.10;0.10;;;;;;;16.68;51.57;102285.94;5049214;28;20029;-81
2021/10/24 12:25:54;;;;;;;0.20;0.20;;;;;;;16.78;50.79;102281.25;5103485;27;20404;-81
2021/10/24 12:33:40;;;;;;;0.10;0.10;;;;;;;16.85;50.03;102272.16;5057476;27;20417;-82
2021/10/24 12:36:13;;;;;;;0.43;0.43;;;;;;;16.91;50.32;102266.69;5056239;28;20025;-81
2021/10/24 12:47:15;;;;;;;0.10;0.10;;;;;;;17.19;50.00;102241.91;5062474;27;20480;-82
2021/10/24 12:49:54;;;;;;;0.17;0.17;;;;;;;17.24;49.74;102241.78;5059181;28;20029;-82